Main page
METAR-TAF:

METAR-TAF

Airports :

Cannes – Mandelieu Airport

Cannes, France

latitude: 43-33N, longitude: 006-57E, elevation: 3 m

Current weather observation

The report was made 36 minutes ago, at 23:30 UTC
Wind 3 kt from the North
Temperature 3°C
Humidity 93%
Pressure 1007 hPa
Visibility 10 km or more
no clouds below 1500 m and no cumulonimbus

METAR: LFMD 172330Z AUTO 36003KT CAVOK 03/02 Q1007

Time: 01:06 (00:06 UTC)

Forecast

The report was made 10 hours and 6 minutes ago, at 14:00 UTC
Forecast valid from 17 at 15 UTC to 18 at 15 UTC
Wind 15 kt from the West/Southwest
Visibility 10 km or more
no clouds below 1500 m and no cumulonimbus
Becoming
from 17 at 21 UTC to 17 at 23 UTC
Wind 10 kt from the North/Northwest
Becoming
from 18 at 10 UTC to 18 at 12 UTC
Wind 15 kt from the East

TAF: LFMD 171400Z 1715/1815 24015KT CAVOK BECMG 1721/1723 34010KT BECMG 1810/1812 09015KT

Weather observations and forecasts of more than 4000 airports (METAR and TAF reports).

The available stations are represented by yellow and red dots on the map.

Hover mouse over dot to see the name of the station.

Then click to see weather observations and forecasts.

To change the map : click on the green buttons with a black cross to zoom in, on the green button with a dash to zoom out, or on the green arrows for adjacent maps.


METAR-TAF: